DAOR

Béchar Boudghene Ben Ali Lotfi Airport

Béchar, Algeria
METAR DAOR 170500Z 04011KT CAVOK 16/08 Q1015
Observed Flight Rules
Oct-17 @ 05:00 UTC (18 minutes ago) Visual Flight Rules
Wind Visibility Clouds
40° at 11 knots 10,000+ meters
  • Clear skies
Temperatures Readings
Current 16°C / 61°F
Dewpoint 8°C / 46°F
Humidity 59%
Altimeter 29.97" Hg
Pressure 1015 hPa
Elevation 773
METAR DAOR 170500Z 04011KT CAVOK 16/08 Q1015
Observed Flight Rules
Oct-17 @ 05:00 UTC
(18 minutes ago)
VFR
Wind Visibility
40° at 11 knots 10,000+ meters
Clouds
  • Clear skies
Temperature Dewpoint
16°C / 61°F 8°C / 46°F
Humidity Altimeter Pressure
59% 29.97" Hg 1015 hPa